Ronnie Rogers — WDD2270 — position and weather

sailwx.info

Track history (hours):
 
Tides and Currents Weather Stations Pressure Air Temp Water Temp Dewpoint Dewpoint Depression Visibility Wind Speed Wind Dir Waves Ship Positions

Ronnie Rogers

Owner: Florida Marine Transporters, Inc., Mandeville, LA. More information available from US FCC via Universal Licensing System and Coast Guard Vessel Documentation Center.

Last reported at 2015-Aug-27 20:29 UTC. Time now 2015-Aug-27 20:48 UTC.
Position N 29°45' W 095°11'.

Length 27 m; draft 3 m.

Type: Towing. MMSI: 367113160.

Date/timePositionNaut miles runAvg speedWind from/ knotsBaromVisibWave heightAir tempDewpointWater temp
2015-Aug-27 20:29N 29°45' W 095°11'5 5.8
2015-Aug-27 19:33N 29°46' W 095°05'1 1.2
2015-Aug-27 18:32N 29°47' W 095°04'1 1.4
2015-Aug-27 17:33N 29°46' W 095°05'5 4.5
2015-Aug-27 16:33N 29°45' W 095°10'2 0.1
2015-Aug-27 03:33N 29°44' W 095°12'0 0.0
2015-Aug-27 02:33N 29°44' W 095°12'0 0.0
2015-Aug-27 01:33N 29°44' W 095°12'1 0.2
2015-Aug-26 21:33N 29°45' W 095°11'5 5.2
2015-Aug-26 20:33N 29°46' W 095°05'2 2.4
2015-Aug-26 19:33N 29°47' W 095°04'0 0.3
2015-Aug-26 18:28N 29°47' W 095°04'1 1.1
2015-Aug-26 17:29N 29°46' W 095°05'1 0.1
2015-Aug-26 07:33N 29°46' W 095°06'0 0.0
2015-Aug-26 06:33N 29°46' W 095°06'1 0.2
2015-Aug-26 02:10N 29°45' W 095°06'2 3.6
2015-Aug-26 01:30N 29°47' W 095°04'0 0.0
2015-Aug-26 00:33N 29°47' W 095°04'0 0.0
2015-Aug-25 22:08N 29°47' W 095°04'0 0.0
2015-Aug-25 21:32N 29°47' W 095°04'0 0.0
2015-Aug-25 20:33N 29°47' W 095°04'0 0.0
2015-Aug-25 18:18N 29°47' W 095°04'0 0.0
2015-Aug-25 17:09N 29°47' W 095°04'0 0.0
2015-Aug-25 16:29N 29°47' W 095°04'2 1.7
2015-Aug-25 15:32N 29°46' W 095°05'6 6.3
2015-Aug-25 14:33N 29°42' W 094°59'8 7.7
2015-Aug-25 13:33N 29°35' W 094°56'8 8.1
2015-Aug-25 12:33N 29°28' W 094°51'  
2015-Aug-18 20:32N 29°25' W 094°50'7 6.7
2015-Aug-18 19:33N 29°31' W 094°53'6 6.3
2015-Aug-18 18:33N 29°36' W 094°57'6 6.3
2015-Aug-18 17:33N 29°42' W 094°60'6 5.7
2015-Aug-18 16:33N 29°46' W 095°05'6 5.6
2015-Aug-18 15:33N 29°45' W 095°11'1 0.1
2015-Aug-18 03:23N 29°44' W 095°12'  
Track history (hours):
 
Tides and Currents Weather Stations Pressure Air Temp Water Temp Dewpoint Dewpoint Depression Visibility Wind Speed Wind Dir Waves Ship Positions

Ronnie Rogers

Owner: Florida Marine Transporters, Inc., Mandeville, LA. More information available from US FCC via Universal Licensing System and Coast Guard Vessel Documentation Center.

Last reported at 2015-Aug-27 20:29 UTC. Time now 2015-Aug-27 20:48 UTC.
Position N 29°45' W 095°11'.

Length 27 m; draft 3 m.

Type: Towing. MMSI: 367113160.

Date/timePositionNaut miles runAvg speedWind from/ knotsBaromVisibWave heightAir tempDewpointWater temp
2015-Aug-27 20:29N 29°45' W 095°11'5 5.8
2015-Aug-27 19:33N 29°46' W 095°05'1 1.2
2015-Aug-27 18:32N 29°47' W 095°04'1 1.4
2015-Aug-27 17:33N 29°46' W 095°05'5 4.5
2015-Aug-27 16:33N 29°45' W 095°10'2 0.1
2015-Aug-27 03:33N 29°44' W 095°12'0 0.0
2015-Aug-27 02:33N 29°44' W 095°12'0 0.0
2015-Aug-27 01:33N 29°44' W 095°12'1 0.2
2015-Aug-26 21:33N 29°45' W 095°11'5 5.2
2015-Aug-26 20:33N 29°46' W 095°05'2 2.4
2015-Aug-26 19:33N 29°47' W 095°04'0 0.3
2015-Aug-26 18:28N 29°47' W 095°04'1 1.1
2015-Aug-26 17:29N 29°46' W 095°05'1 0.1
2015-Aug-26 07:33N 29°46' W 095°06'0 0.0
2015-Aug-26 06:33N 29°46' W 095°06'1 0.2
2015-Aug-26 02:10N 29°45' W 095°06'2 3.6
2015-Aug-26 01:30N 29°47' W 095°04'0 0.0
2015-Aug-26 00:33N 29°47' W 095°04'0 0.0
2015-Aug-25 22:08N 29°47' W 095°04'0 0.0
2015-Aug-25 21:32N 29°47' W 095°04'0 0.0
2015-Aug-25 20:33N 29°47' W 095°04'0 0.0
2015-Aug-25 18:18N 29°47' W 095°04'0 0.0
2015-Aug-25 17:09N 29°47' W 095°04'0 0.0
2015-Aug-25 16:29N 29°47' W 095°04'2 1.7
2015-Aug-25 15:32N 29°46' W 095°05'6 6.3
2015-Aug-25 14:33N 29°42' W 094°59'8 7.7
2015-Aug-25 13:33N 29°35' W 094°56'8 8.1
2015-Aug-25 12:33N 29°28' W 094°51'  
2015-Aug-18 20:32N 29°25' W 094°50'7 6.7
2015-Aug-18 19:33N 29°31' W 094°53'6 6.3
2015-Aug-18 18:33N 29°36' W 094°57'6 6.3
2015-Aug-18 17:33N 29°42' W 094°60'6 5.7
2015-Aug-18 16:33N 29°46' W 095°05'6 5.6
2015-Aug-18 15:33N 29°45' W 095°11'1 0.1
2015-Aug-18 03:23N 29°44' W 095°12'  

Dump ship's entire track history